sensor_id;sensor_type;location;lat;lon;timestamp;temperature;humidity
11647;DHT22;5880;52.342;9.662;2023-04-01T00:00:30;13.50;68.30
11647;DHT22;5880;52.342;9.662;2023-04-01T00:02:56;13.50;68.30
11647;DHT22;5880;52.342;9.662;2023-04-01T00:05:22;13.50;68.30
11647;DHT22;5880;52.342;9.662;2023-04-01T00:07:50;13.50;68.30
11647;DHT22;5880;52.342;9.662;2023-04-01T00:10:16;13.50;68.30
11647;DHT22;5880;52.342;9.662;2023-04-01T00:12:42;13.60;68.30
11647;DHT22;5880;52.342;9.662;2023-04-01T00:15:09;13.60;68.30
11647;DHT22;5880;52.342;9.662;2023-04-01T00:17:36;13.50;68.30
11647;DHT22;5880;52.342;9.662;2023-04-01T00:20:03;13.60;68.20
11647;DHT22;5880;52.342;9.662;2023-04-01T00:22:30;13.60;68.30
11647;DHT22;5880;52.342;9.662;2023-04-01T00:24:55;13.60;68.30
11647;DHT22;5880;52.342;9.662;2023-04-01T00:27:21;13.60;68.20
11647;DHT22;5880;52.342;9.662;2023-04-01T00:29:47;13.60;68.10
11647;DHT22;5880;52.342;9.662;2023-04-01T00:32:14;13.60;68.30
11647;DHT22;5880;52.342;9.662;2023-04-01T00:34:40;13.60;68.00
11647;DHT22;5880;52.342;9.662;2023-04-01T00:37:07;13.60;68.10
11647;DHT22;5880;52.342;9.662;2023-04-01T00:39:34;13.60;68.10
11647;DHT22;5880;52.342;9.662;2023-04-01T00:42:02;13.60;68.00
11647;DHT22;5880;52.342;9.662;2023-04-01T00:44:34;13.60;68.00
11647;DHT22;5880;52.342;9.662;2023-04-01T00:47:00;13.60;68.00
11647;DHT22;5880;52.342;9.662;2023-04-01T00:49:33;13.60;68.00
11647;DHT22;5880;52.342;9.662;2023-04-01T00:52:06;13.60;68.00
11647;DHT22;5880;52.342;9.662;2023-04-01T00:54:34;13.60;68.00
11647;DHT22;5880;52.342;9.662;2023-04-01T00:59:46;13.60;67.90
11647;DHT22;5880;52.342;9.662;2023-04-01T01:02:15;13.60;67.70
11647;DHT22;5880;52.342;9.662;2023-04-01T01:04:41;13.60;67.70
11647;DHT22;5880;52.342;9.662;2023-04-01T01:07:26;13.50;67.60
11647;DHT22;5880;52.342;9.662;2023-04-01T01:13:06;13.50;68.10
11647;DHT22;5880;52.342;9.662;2023-04-01T01:15:46;13.40;67.90
11647;DHT22;5880;52.342;9.662;2023-04-01T01:18:44;13.40;67.80
11647;DHT22;5880;52.342;9.662;2023-04-01T01:21:23;13.40;67.80
11647;DHT22;5880;52.342;9.662;2023-04-01T01:35:49;13.30;68.30
11647;DHT22;5880;52.342;9.662;2023-04-01T01:38:23;13.30;68.30
11647;DHT22;5880;52.342;9.662;2023-04-01T01:40:52;13.30;68.00
11647;DHT22;5880;52.342;9.662;2023-04-01T01:43:27;13.30;68.00
11647;DHT22;5880;52.342;9.662;2023-04-01T01:46:00;13.30;68.20
11647;DHT22;5880;52.342;9.662;2023-04-01T01:48:31;13.30;68.20
11647;DHT22;5880;52.342;9.662;2023-04-01T01:50:59;13.30;68.20
11647;DHT22;5880;52.342;9.662;2023-04-01T01:53:25;13.30;68.20
11647;DHT22;5880;52.342;9.662;2023-04-01T01:55:51;13.30;68.20
11647;DHT22;5880;52.342;9.662;2023-04-01T02:01:16;13.30;68.40
11647;DHT22;5880;52.342;9.662;2023-04-01T02:03:45;13.30;68.20
11647;DHT22;5880;52.342;9.662;2023-04-01T02:06:16;13.30;68.20
11647;DHT22;5880;52.342;9.662;2023-04-01T02:08:51;13.30;68.20
11647;DHT22;5880;52.342;9.662;2023-04-01T02:11:27;13.30;68.30
11647;DHT22;5880;52.342;9.662;2023-04-01T02:14:34;13.30;68.20
11647;DHT22;5880;52.342;9.662;2023-04-01T02:17:23;13.50;68.50
11647;DHT22;5880;52.342;9.662;2023-04-01T02:19:55;13.30;68.00
11647;DHT22;5880;52.342;9.662;2023-04-01T02:22:28;13.30;67.90
11647;DHT22;5880;52.342;9.662;2023-04-01T02:25:00;13.30;67.90
11647;DHT22;5880;52.342;9.662;2023-04-01T02:27:30;13.30;68.00
11647;DHT22;5880;52.342;9.662;2023-04-01T02:29:57;13.30;67.90
11647;DHT22;5880;52.342;9.662;2023-04-01T02:32:23;13.30;67.90
11647;DHT22;5880;52.342;9.662;2023-04-01T02:34:51;13.30;67.90
11647;DHT22;5880;52.342;9.662;2023-04-01T02:37:17;13.30;67.90
11647;DHT22;5880;52.342;9.662;2023-04-01T02:39:43;13.30;67.90
11647;DHT22;5880;52.342;9.662;2023-04-01T02:42:13;13.30;67.90
11647;DHT22;5880;52.342;9.662;2023-04-01T02:44:39;13.30;67.90
11647;DHT22;5880;52.342;9.662;2023-04-01T02:47:05;13.30;67.90
11647;DHT22;5880;52.342;9.662;2023-04-01T02:49:31;13.40;67.80
11647;DHT22;5880;52.342;9.662;2023-04-01T02:51:56;13.30;67.80
11647;DHT22;5880;52.342;9.662;2023-04-01T02:54:22;13.40;67.80
11647;DHT22;5880;52.342;9.662;2023-04-01T02:56:48;13.40;67.80
11647;DHT22;5880;52.342;9.662;2023-04-01T02:59:13;13.40;67.80
11647;DHT22;5880;52.342;9.662;2023-04-01T03:01:39;13.40;67.80
11647;DHT22;5880;52.342;9.662;2023-04-01T03:04:05;13.30;67.90
11647;DHT22;5880;52.342;9.662;2023-04-01T03:06:30;13.30;68.60
11647;DHT22;5880;52.342;9.662;2023-04-01T03:08:56;13.30;67.90
11647;DHT22;5880;52.342;9.662;2023-04-01T03:11:22;13.30;67.90
11647;DHT22;5880;52.342;9.662;2023-04-01T03:13:48;13.30;67.90
11647;DHT22;5880;52.342;9.662;2023-04-01T03:16:14;13.30;67.90
11647;DHT22;5880;52.342;9.662;2023-04-01T03:18:40;13.30;67.80
11647;DHT22;5880;52.342;9.662;2023-04-01T03:21:17;13.30;67.80
11647;DHT22;5880;52.342;9.662;2023-04-01T03:23:44;13.30;68.00
11647;DHT22;5880;52.342;9.662;2023-04-01T03:26:10;13.30;67.90
11647;DHT22;5880;52.342;9.662;2023-04-01T03:28:36;13.30;67.90
11647;DHT22;5880;52.342;9.662;2023-04-01T03:31:02;13.30;67.80
11647;DHT22;5880;52.342;9.662;2023-04-01T03:33:28;13.30;67.80
11647;DHT22;5880;52.342;9.662;2023-04-01T03:35:53;13.30;67.80
11647;DHT22;5880;52.342;9.662;2023-04-01T03:38:19;13.30;67.70
11647;DHT22;5880;52.342;9.662;2023-04-01T03:40:45;13.30;67.80
11647;DHT22;5880;52.342;9.662;2023-04-01T03:43:11;13.30;67.80
11647;DHT22;5880;52.342;9.662;2023-04-01T03:45:44;13.30;67.80
11647;DHT22;5880;52.342;9.662;2023-04-01T03:48:11;13.30;67.90
11647;DHT22;5880;52.342;9.662;2023-04-01T03:50:37;13.30;67.80
11647;DHT22;5880;52.342;9.662;2023-04-01T03:53:03;13.30;67.80
11647;DHT22;5880;52.342;9.662;2023-04-01T03:55:28;13.30;67.80
11647;DHT22;5880;52.342;9.662;2023-04-01T03:57:54;13.30;67.80
11647;DHT22;5880;52.342;9.662;2023-04-01T04:00:23;13.30;67.80
11647;DHT22;5880;52.342;9.662;2023-04-01T04:02:48;13.30;67.90
11647;DHT22;5880;52.342;9.662;2023-04-01T04:05:14;13.30;67.90
11647;DHT22;5880;52.342;9.662;2023-04-01T04:07:40;13.30;67.90
11647;DHT22;5880;52.342;9.662;2023-04-01T04:10:06;13.30;67.90
11647;DHT22;5880;52.342;9.662;2023-04-01T04:12:32;13.30;67.90
11647;DHT22;5880;52.342;9.662;2023-04-01T04:14:58;13.30;67.90
11647;DHT22;5880;52.342;9.662;2023-04-01T04:17:23;13.30;68.00
11647;DHT22;5880;52.342;9.662;2023-04-01T04:19:49;13.30;67.90
11647;DHT22;5880;52.342;9.662;2023-04-01T04:22:15;13.30;68.00
11647;DHT22;5880;52.342;9.662;2023-04-01T04:24:40;13.30;68.00
11647;DHT22;5880;52.342;9.662;2023-04-01T04:27:06;13.20;67.90
11647;DHT22;5880;52.342;9.662;2023-04-01T04:29:32;13.20;68.00
11647;DHT22;5880;52.342;9.662;2023-04-01T04:31:57;13.20;68.00
11647;DHT22;5880;52.342;9.662;2023-04-01T04:34:23;13.20;68.00
11647;DHT22;5880;52.342;9.662;2023-04-01T04:36:49;13.20;68.10
11647;DHT22;5880;52.342;9.662;2023-04-01T04:39:15;13.20;68.00
11647;DHT22;5880;52.342;9.662;2023-04-01T04:41:41;13.40;68.10
11647;DHT22;5880;52.342;9.662;2023-04-01T04:44:07;13.20;68.00
11647;DHT22;5880;52.342;9.662;2023-04-01T04:46:33;13.20;68.10
11647;DHT22;5880;52.342;9.662;2023-04-01T04:48:59;13.20;68.10
11647;DHT22;5880;52.342;9.662;2023-04-01T04:51:25;13.10;68.10
11647;DHT22;5880;52.342;9.662;2023-04-01T04:53:51;13.10;68.20
11647;DHT22;5880;52.342;9.662;2023-04-01T04:56:21;13.10;68.20
11647;DHT22;5880;52.342;9.662;2023-04-01T04:58:47;13.10;68.50
11647;DHT22;5880;52.342;9.662;2023-04-01T05:01:15;13.10;68.30
11647;DHT22;5880;52.342;9.662;2023-04-01T05:03:42;13.10;68.50
11647;DHT22;5880;52.342;9.662;2023-04-01T05:06:09;13.00;68.30
11647;DHT22;5880;52.342;9.662;2023-04-01T05:08:37;13.00;68.40
11647;DHT22;5880;52.342;9.662;2023-04-01T05:11:07;13.00;68.40
11647;DHT22;5880;52.342;9.662;2023-04-01T05:13:36;13.10;68.70
11647;DHT22;5880;52.342;9.662;2023-04-01T05:16:01;13.00;68.50
11647;DHT22;5880;52.342;9.662;2023-04-01T05:18:27;13.00;68.70
11647;DHT22;5880;52.342;9.662;2023-04-01T05:20:54;12.90;68.70
11647;DHT22;5880;52.342;9.662;2023-04-01T05:23:21;13.00;68.80
11647;DHT22;5880;52.342;9.662;2023-04-01T05:25:48;13.00;68.80
11647;DHT22;5880;52.342;9.662;2023-04-01T05:28:16;12.90;68.90
11647;DHT22;5880;52.342;9.662;2023-04-01T05:30:43;12.90;68.90
11647;DHT22;5880;52.342;9.662;2023-04-01T05:33:11;12.90;69.80
11647;DHT22;5880;52.342;9.662;2023-04-01T05:35:38;12.90;69.20
11647;DHT22;5880;52.342;9.662;2023-04-01T05:38:04;12.90;69.20
11647;DHT22;5880;52.342;9.662;2023-04-01T05:40:30;12.90;69.30
11647;DHT22;5880;52.342;9.662;2023-04-01T05:42:57;13.00;69.40
11647;DHT22;5880;52.342;9.662;2023-04-01T05:45:23;12.90;69.50
11647;DHT22;5880;52.342;9.662;2023-04-01T05:47:49;13.00;69.60
11647;DHT22;5880;52.342;9.662;2023-04-01T05:50:15;13.00;69.70
11647;DHT22;5880;52.342;9.662;2023-04-01T05:52:41;13.00;69.80
11647;DHT22;5880;52.342;9.662;2023-04-01T05:55:07;13.00;69.80
11647;DHT22;5880;52.342;9.662;2023-04-01T05:57:34;13.00;69.90
11647;DHT22;5880;52.342;9.662;2023-04-01T06:00:00;13.10;70.10
11647;DHT22;5880;52.342;9.662;2023-04-01T06:02:25;13.10;70.00
11647;DHT22;5880;52.342;9.662;2023-04-01T06:05:02;13.10;70.00
11647;DHT22;5880;52.342;9.662;2023-04-01T06:07:37;13.20;70.30
11647;DHT22;5880;52.342;9.662;2023-04-01T06:10:19;13.20;70.00
11647;DHT22;5880;52.342;9.662;2023-04-01T06:13:27;13.20;70.40
11647;DHT22;5880;52.342;9.662;2023-04-01T06:30:43;13.50;70.70
11647;DHT22;5880;52.342;9.662;2023-04-01T06:33:35;13.50;70.10
11647;DHT22;5880;52.342;9.662;2023-04-01T06:39:44;13.50;70.30
11647;DHT22;5880;52.342;9.662;2023-04-01T06:42:36;13.60;70.40
11647;DHT22;5880;52.342;9.662;2023-04-01T06:56:53;13.70;70.70
11647;DHT22;5880;52.342;9.662;2023-04-01T06:59:26;13.70;71.30
11647;DHT22;5880;52.342;9.662;2023-04-01T07:01:59;13.80;70.60
11647;DHT22;5880;52.342;9.662;2023-04-01T07:04:34;13.80;70.50
11647;DHT22;5880;52.342;9.662;2023-04-01T07:07:29;13.80;70.20
11647;DHT22;5880;52.342;9.662;2023-04-01T07:10:04;13.90;70.80
11647;DHT22;5880;52.342;9.662;2023-04-01T07:12:49;13.90;70.30
11647;DHT22;5880;52.342;9.662;2023-04-01T07:15:21;13.90;70.60
11647;DHT22;5880;52.342;9.662;2023-04-01T07:17:55;13.90;70.20
11647;DHT22;5880;52.342;9.662;2023-04-01T07:20:30;13.90;70.30
11647;DHT22;5880;52.342;9.662;2023-04-01T07:23:04;13.90;70.40
11647;DHT22;5880;52.342;9.662;2023-04-01T07:25:39;14.00;70.40
11647;DHT22;5880;52.342;9.662;2023-04-01T07:28:14;13.90;70.20
11647;DHT22;5880;52.342;9.662;2023-04-01T07:33:56;14.00;70.70
11647;DHT22;5880;52.342;9.662;2023-04-01T07:36:42;14.00;70.60
11647;DHT22;5880;52.342;9.662;2023-04-01T07:48:42;14.20;71.20
11647;DHT22;5880;52.342;9.662;2023-04-01T07:51:31;14.30;71.10
11647;DHT22;5880;52.342;9.662;2023-04-01T07:54:25;14.40;71.40
11647;DHT22;5880;52.342;9.662;2023-04-01T07:56:56;14.50;72.00
11647;DHT22;5880;52.342;9.662;2023-04-01T08:10:57;15.50;73.20
11647;DHT22;5880;52.342;9.662;2023-04-01T08:16:23;16.00;72.70
11647;DHT22;5880;52.342;9.662;2023-04-01T08:19:03;16.20;72.00
11647;DHT22;5880;52.342;9.662;2023-04-01T08:21:47;16.40;71.30
11647;DHT22;5880;52.342;9.662;2023-04-01T08:24:36;16.50;70.30
11647;DHT22;5880;52.342;9.662;2023-04-01T08:27:24;16.50;68.90
11647;DHT22;5880;52.342;9.662;2023-04-01T08:32:57;16.70;68.30
11647;DHT22;5880;52.342;9.662;2023-04-01T08:35:53;16.60;67.70
11647;DHT22;5880;52.342;9.662;2023-04-01T08:38:51;16.60;67.80
11647;DHT22;5880;52.342;9.662;2023-04-01T08:47:56;16.40;66.70
11647;DHT22;5880;52.342;9.662;2023-04-01T09:03:24;16.10;67.10
11647;DHT22;5880;52.342;9.662;2023-04-01T09:06:37;16.00;67.00
11647;DHT22;5880;52.342;9.662;2023-04-01T09:12:54;16.00;67.20
11647;DHT22;5880;52.342;9.662;2023-04-01T09:15:49;16.00;67.20
11647;DHT22;5880;52.342;9.662;2023-04-01T09:18:59;16.00;67.50
11647;DHT22;5880;52.342;9.662;2023-04-01T09:28:07;16.10;67.80
11647;DHT22;5880;52.342;9.662;2023-04-01T09:30:52;16.10;67.20
11647;DHT22;5880;52.342;9.662;2023-04-01T09:36:44;16.10;66.40
11647;DHT22;5880;52.342;9.662;2023-04-01T09:39:31;16.10;66.30
11647;DHT22;5880;52.342;9.662;2023-04-01T09:42:24;16.10;66.60
11647;DHT22;5880;52.342;9.662;2023-04-01T09:48:14;16.00;66.10
11647;DHT22;5880;52.342;9.662;2023-04-01T10:00:18;15.90;66.00
11647;DHT22;5880;52.342;9.662;2023-04-01T10:06:32;15.70;67.00
11647;DHT22;5880;52.342;9.662;2023-04-01T10:21:56;15.70;66.50
11647;DHT22;5880;52.342;9.662;2023-04-01T10:36:37;15.80;67.10
11647;DHT22;5880;52.342;9.662;2023-04-01T10:55:34;16.40;67.40
11647;DHT22;5880;52.342;9.662;2023-04-01T11:01:42;16.60;66.30
11647;DHT22;5880;52.342;9.662;2023-04-01T11:11:09;16.70;66.30
11647;DHT22;5880;52.342;9.662;2023-04-01T11:14:07;16.80;65.30
11647;DHT22;5880;52.342;9.662;2023-04-01T11:33:19;16.80;65.20
11647;DHT22;5880;52.342;9.662;2023-04-01T11:39:14;16.80;64.70
11647;DHT22;5880;52.342;9.662;2023-04-01T11:44:57;16.80;64.30
11647;DHT22;5880;52.342;9.662;2023-04-01T11:53:21;16.70;64.20
11647;DHT22;5880;52.342;9.662;2023-04-01T11:59:58;16.70;63.40
11647;DHT22;5880;52.342;9.662;2023-04-01T12:03:08;16.70;62.90
11647;DHT22;5880;52.342;9.662;2023-04-01T12:06:02;16.70;64.00
11647;DHT22;5880;52.342;9.662;2023-04-01T12:09:09;16.80;64.50
11647;DHT22;5880;52.342;9.662;2023-04-01T12:18:33;16.80;63.60
11647;DHT22;5880;52.342;9.662;2023-04-01T12:27:19;16.80;64.10
11647;DHT22;5880;52.342;9.662;2023-04-01T12:33:10;16.60;63.70
11647;DHT22;5880;52.342;9.662;2023-04-01T12:36:18;16.90;64.20
11647;DHT22;5880;52.342;9.662;2023-04-01T12:39:29;16.90;64.00
11647;DHT22;5880;52.342;9.662;2023-04-01T12:45:35;16.90;64.60
11647;DHT22;5880;52.342;9.662;2023-04-01T12:48:31;17.00;64.10
11647;DHT22;5880;52.342;9.662;2023-04-01T12:51:44;17.10;63.50
11647;DHT22;5880;52.342;9.662;2023-04-01T13:00:14;16.80;62.70
11647;DHT22;5880;52.342;9.662;2023-04-01T13:07:09;16.70;62.30
11647;DHT22;5880;52.342;9.662;2023-04-01T13:09:39;16.70;62.80
11647;DHT22;5880;52.342;9.662;2023-04-01T13:12:58;16.70;62.90
11647;DHT22;5880;52.342;9.662;2023-04-01T13:15:58;16.60;62.70
11647;DHT22;5880;52.342;9.662;2023-04-01T13:22:12;16.50;63.00
11647;DHT22;5880;52.342;9.662;2023-04-01T13:24:54;16.50;63.50
11647;DHT22;5880;52.342;9.662;2023-04-01T13:27:41;16.40;63.30
11647;DHT22;5880;52.342;9.662;2023-04-01T13:33:31;16.30;62.80
11647;DHT22;5880;52.342;9.662;2023-04-01T13:36:26;16.20;63.00
11647;DHT22;5880;52.342;9.662;2023-04-01T13:39:10;16.20;63.90
11647;DHT22;5880;52.342;9.662;2023-04-01T13:42:02;16.10;63.70
11647;DHT22;5880;52.342;9.662;2023-04-01T13:44:53;16.10;64.10
11647;DHT22;5880;52.342;9.662;2023-04-01T13:47:47;16.00;63.70
11647;DHT22;5880;52.342;9.662;2023-04-01T14:06:12;15.70;65.50
11647;DHT22;5880;52.342;9.662;2023-04-01T14:14:31;15.60;65.40
11647;DHT22;5880;52.342;9.662;2023-04-01T14:21:02;15.40;65.20
11647;DHT22;5880;52.342;9.662;2023-04-01T14:26:53;15.20;65.90
11647;DHT22;5880;52.342;9.662;2023-04-01T14:29:47;15.00;65.70
11647;DHT22;5880;52.342;9.662;2023-04-01T14:35:59;14.70;66.50
11647;DHT22;5880;52.342;9.662;2023-04-01T14:42:23;14.40;67.60
11647;DHT22;5880;52.342;9.662;2023-04-01T14:45:20;14.20;66.90
11647;DHT22;5880;52.342;9.662;2023-04-01T14:54:04;13.90;67.70
11647;DHT22;5880;52.342;9.662;2023-04-01T15:02:16;13.60;67.70
11647;DHT22;5880;52.342;9.662;2023-04-01T15:05:10;13.60;68.00
11647;DHT22;5880;52.342;9.662;2023-04-01T15:10:58;13.50;68.40
11647;DHT22;5880;52.342;9.662;2023-04-01T15:14:00;13.50;68.70
11647;DHT22;5880;52.342;9.662;2023-04-01T15:16:40;13.40;68.80
11647;DHT22;5880;52.342;9.662;2023-04-01T15:19:35;13.30;68.90
11647;DHT22;5880;52.342;9.662;2023-04-01T15:22:38;13.30;69.00
11647;DHT22;5880;52.342;9.662;2023-04-01T15:34:38;13.00;69.00
11647;DHT22;5880;52.342;9.662;2023-04-01T15:37:23;12.80;70.00
11647;DHT22;5880;52.342;9.662;2023-04-01T15:45:45;12.70;69.40
11647;DHT22;5880;52.342;9.662;2023-04-01T15:48:33;12.60;69.60
11647;DHT22;5880;52.342;9.662;2023-04-01T16:12:18;12.10;70.40
11647;DHT22;5880;52.342;9.662;2023-04-01T16:15:08;12.00;70.40
11647;DHT22;5880;52.342;9.662;2023-04-01T16:18:14;12.00;71.50
11647;DHT22;5880;52.342;9.662;2023-04-01T16:21:00;11.90;71.30
11647;DHT22;5880;52.342;9.662;2023-04-01T16:23:59;11.80;70.60
11647;DHT22;5880;52.342;9.662;2023-04-01T16:26:39;11.80;70.10
11647;DHT22;5880;52.342;9.662;2023-04-01T16:32:02;11.60;70.60
11647;DHT22;5880;52.342;9.662;2023-04-01T16:38:08;11.60;70.80
11647;DHT22;5880;52.342;9.662;2023-04-01T16:43:38;11.40;71.90
11647;DHT22;5880;52.342;9.662;2023-04-01T16:46:34;11.30;72.00
11647;DHT22;5880;52.342;9.662;2023-04-01T16:54:51;11.20;72.40
11647;DHT22;5880;52.342;9.662;2023-04-01T16:57:27;11.20;72.30
11647;DHT22;5880;52.342;9.662;2023-04-01T17:02:57;11.10;73.20
11647;DHT22;5880;52.342;9.662;2023-04-01T17:05:48;11.00;72.40
11647;DHT22;5880;52.342;9.662;2023-04-01T17:08:36;11.00;72.60
11647;DHT22;5880;52.342;9.662;2023-04-01T17:11:21;10.90;72.50
11647;DHT22;5880;52.342;9.662;2023-04-01T17:14:29;10.90;72.30
11647;DHT22;5880;52.342;9.662;2023-04-01T17:20:40;10.80;71.90
11647;DHT22;5880;52.342;9.662;2023-04-01T17:25:57;10.70;71.70
11647;DHT22;5880;52.342;9.662;2023-04-01T17:40:00;10.40;72.90
11647;DHT22;5880;52.342;9.662;2023-04-01T17:53:17;10.40;72.90
11647;DHT22;5880;52.342;9.662;2023-04-01T17:59:06;10.30;73.10
11647;DHT22;5880;52.342;9.662;2023-04-01T18:07:27;10.20;72.70
11647;DHT22;5880;52.342;9.662;2023-04-01T18:10:17;10.20;72.80
11647;DHT22;5880;52.342;9.662;2023-04-01T18:13:37;10.20;72.80
11647;DHT22;5880;52.342;9.662;2023-04-01T18:19:27;10.10;72.90
11647;DHT22;5880;52.342;9.662;2023-04-01T18:22:22;10.10;72.50
11647;DHT22;5880;52.342;9.662;2023-04-01T18:27:38;10.00;72.50
11647;DHT22;5880;52.342;9.662;2023-04-01T18:30:28;9.90;72.90
11647;DHT22;5880;52.342;9.662;2023-04-01T18:33:06;9.90;73.10
11647;DHT22;5880;52.342;9.662;2023-04-01T18:36:04;9.90;72.70
11647;DHT22;5880;52.342;9.662;2023-04-01T18:38:49;9.80;72.90
11647;DHT22;5880;52.342;9.662;2023-04-01T18:41:36;9.80;73.00
11647;DHT22;5880;52.342;9.662;2023-04-01T18:50:21;9.70;73.10
11647;DHT22;5880;52.342;9.662;2023-04-01T18:55:56;9.50;73.60
11647;DHT22;5880;52.342;9.662;2023-04-01T18:58:34;9.50;73.00
11647;DHT22;5880;52.342;9.662;2023-04-01T19:06:59;9.50;73.40
11647;DHT22;5880;52.342;9.662;2023-04-01T19:09:31;9.50;73.10
11647;DHT22;5880;52.342;9.662;2023-04-01T19:15:31;9.50;73.50
11647;DHT22;5880;52.342;9.662;2023-04-01T19:21:33;9.40;73.10
11647;DHT22;5880;52.342;9.662;2023-04-01T19:27:37;9.30;72.50
11647;DHT22;5880;52.342;9.662;2023-04-01T19:33:37;9.20;72.40
11647;DHT22;5880;52.342;9.662;2023-04-01T19:45:45;9.10;72.50
11647;DHT22;5880;52.342;9.662;2023-04-01T19:48:36;9.00;72.60
11647;DHT22;5880;52.342;9.662;2023-04-01T19:51:47;9.00;72.50
11647;DHT22;5880;52.342;9.662;2023-04-01T20:08:22;9.00;72.70
11647;DHT22;5880;52.342;9.662;2023-04-01T20:14:07;9.00;71.90
11647;DHT22;5880;52.342;9.662;2023-04-01T20:22:28;8.80;71.60
11647;DHT22;5880;52.342;9.662;2023-04-01T20:25:26;8.70;71.90
11647;DHT22;5880;52.342;9.662;2023-04-01T20:34:01;8.60;71.80
11647;DHT22;5880;52.342;9.662;2023-04-01T20:42:56;8.50;72.30
11647;DHT22;5880;52.342;9.662;2023-04-01T20:48:30;8.50;72.10
11647;DHT22;5880;52.342;9.662;2023-04-01T20:51:07;8.50;72.50
11647;DHT22;5880;52.342;9.662;2023-04-01T20:57:11;8.50;72.50
11647;DHT22;5880;52.342;9.662;2023-04-01T21:00:27;8.50;72.70
11647;DHT22;5880;52.342;9.662;2023-04-01T21:15:16;8.40;72.50
11647;DHT22;5880;52.342;9.662;2023-04-01T21:17:53;8.40;72.00
11647;DHT22;5880;52.342;9.662;2023-04-01T21:20:43;8.30;72.40
11647;DHT22;5880;52.342;9.662;2023-04-01T21:23:43;8.30;72.70
11647;DHT22;5880;52.342;9.662;2023-04-01T21:29:33;8.20;72.40
11647;DHT22;5880;52.342;9.662;2023-04-01T21:35:14;8.10;72.40
11647;DHT22;5880;52.342;9.662;2023-04-01T21:41:18;8.00;73.30
11647;DHT22;5880;52.342;9.662;2023-04-01T21:44:08;8.00;72.50
11647;DHT22;5880;52.342;9.662;2023-04-01T22:08:00;7.70;72.10
11647;DHT22;5880;52.342;9.662;2023-04-01T22:10:44;7.70;72.10
11647;DHT22;5880;52.342;9.662;2023-04-01T22:13:35;7.70;72.20
11647;DHT22;5880;52.342;9.662;2023-04-01T22:16:21;7.70;72.40
11647;DHT22;5880;52.342;9.662;2023-04-01T22:19:39;7.70;72.40
11647;DHT22;5880;52.342;9.662;2023-04-01T22:25:14;7.70;72.40
11647;DHT22;5880;52.342;9.662;2023-04-01T22:27:54;7.70;72.40
11647;DHT22;5880;52.342;9.662;2023-04-01T22:30:31;7.70;72.50
11647;DHT22;5880;52.342;9.662;2023-04-01T22:33:11;7.70;72.50
11647;DHT22;5880;52.342;9.662;2023-04-01T22:36:02;7.70;72.70
11647;DHT22;5880;52.342;9.662;2023-04-01T22:44:37;7.70;72.90
11647;DHT22;5880;52.342;9.662;2023-04-01T22:50:32;7.70;71.90
11647;DHT22;5880;52.342;9.662;2023-04-01T22:55:40;7.60;71.60
11647;DHT22;5880;52.342;9.662;2023-04-01T22:58:13;7.50;71.60
11647;DHT22;5880;52.342;9.662;2023-04-01T23:00:49;7.40;71.70
11647;DHT22;5880;52.342;9.662;2023-04-01T23:03:25;7.30;72.00
11647;DHT22;5880;52.342;9.662;2023-04-01T23:05:58;7.30;72.00
11647;DHT22;5880;52.342;9.662;2023-04-01T23:11:16;7.30;72.30
11647;DHT22;5880;52.342;9.662;2023-04-01T23:13:49;7.30;72.10
11647;DHT22;5880;52.342;9.662;2023-04-01T23:16:41;7.40;72.20
11647;DHT22;5880;52.342;9.662;2023-04-01T23:19:17;7.40;72.00
11647;DHT22;5880;52.342;9.662;2023-04-01T23:21:58;7.40;71.70
11647;DHT22;5880;52.342;9.662;2023-04-01T23:24:47;7.40;71.70
11647;DHT22;5880;52.342;9.662;2023-04-01T23:27:31;7.30;71.40
11647;DHT22;5880;52.342;9.662;2023-04-01T23:30:11;7.30;71.60
11647;DHT22;5880;52.342;9.662;2023-04-01T23:33:28;7.30;71.80
11647;DHT22;5880;52.342;9.662;2023-04-01T23:35:58;7.30;71.70
11647;DHT22;5880;52.342;9.662;2023-04-01T23:38:32;7.30;71.70
11647;DHT22;5880;52.342;9.662;2023-04-01T23:41:00;7.30;71.60
11647;DHT22;5880;52.342;9.662;2023-04-01T23:43:30;7.40;71.50
11647;DHT22;5880;52.342;9.662;2023-04-01T23:46:00;7.30;71.50
11647;DHT22;5880;52.342;9.662;2023-04-01T23:48:41;7.30;71.40
11647;DHT22;5880;52.342;9.662;2023-04-01T23:51:35;7.30;71.40
11647;DHT22;5880;52.342;9.662;2023-04-01T23:54:16;7.40;71.00
11647;DHT22;5880;52.342;9.662;2023-04-01T23:56:48;7.30;70.80
11647;DHT22;5880;52.342;9.662;2023-04-01T23:59:19;7.40;71.10
